Time;durP1;ratioP1;P1;durP2;ratioP2;P2;SDS_P1;SDS_P2;PMS_P1;PMS_P2;Temp;Humidity;BMP_temperature;BMP_pressure;BME280_temperature;BME280_humidity;BME280_pressure;Samples;Min_cycle;Max_cycle;Signal;HPM_P1;HPM_P2
2023/07/25 00:00:15;;;;;;;3.3;2.5;;;;;;;;;;;;;
2023/07/25 00:02:41;;;;;;;2.3;1.9;;;;;;;;;;;;;
2023/07/25 00:05:06;;;;;;;3;2.3;;;;;;;;;;;;;
2023/07/25 00:07:33;;;;;;;3.2;1.9;;;;;;;;;;;;;
2023/07/25 00:09:58;;;;;;;3;1.8;;;;;;;;;;;;;
2023/07/25 00:12:25;;;;;;;2.1;1.8;;;;;;;;;;;;;
2023/07/25 00:14:50;;;;;;;2.3;1.7;;;;;;;;;;;;;
2023/07/25 00:17:16;;;;;;;2.6;1.8;;;;;;;;;;;;;
2023/07/25 00:19:41;;;;;;;3.4;1.9;;;;;;;;;;;;;
2023/07/25 00:22:07;;;;;;;2.7;1.5;;;;;;;;;;;;;
2023/07/25 00:24:32;;;;;;;1.9;1.7;;;;;;;;;;;;;
2023/07/25 00:26:57;;;;;;;3.4;1.7;;;;;;;;;;;;;
2023/07/25 00:29:23;;;;;;;2.5;1.6;;;;;;;;;;;;;
2023/07/25 00:31:48;;;;;;;2.9;1.9;;;;;;;;;;;;;
2023/07/25 00:34:14;;;;;;;1.8;1.5;;;;;;;;;;;;;
2023/07/25 00:36:47;;;;;;;2.1;1.8;;;;;;;;;;;;;
2023/07/25 00:39:19;;;;;;;2.2;1.8;;;;;;;;;;;;;
2023/07/25 00:41:44;;;;;;;2.3;1.8;;;;;;;;;;;;;
2023/07/25 00:44:12;;;;;;;2.8;1.9;;;;;;;;;;;;;
2023/07/25 00:46:37;;;;;;;3.1;1.4;;;;;;;;;;;;;
2023/07/25 00:49:03;;;;;;;2.5;1.8;;;;;;;;;;;;;
2023/07/25 00:51:28;;;;;;;2.6;2.1;;;;;;;;;;;;;
2023/07/25 00:54:00;;;;;;;2.2;1.9;;;;;;;;;;;;;
2023/07/25 00:56:38;;;;;;;2.3;1.8;;;;;;;;;;;;;
2023/07/25 00:59:25;;;;;;;3.7;2.2;;;;;;;;;;;;;
2023/07/25 01:02:00;;;;;;;2.6;1.8;;;;;;;;;;;;;
2023/07/25 01:04:28;;;;;;;3.3;2.2;;;;;;;;;;;;;
2023/07/25 01:06:54;;;;;;;3.2;1.8;;;;;;;;;;;;;
2023/07/25 01:09:25;;;;;;;2.5;1.8;;;;;;;;;;;;;
2023/07/25 01:12:05;;;;;;;2.2;1.9;;;;;;;;;;;;;
2023/07/25 01:14:43;;;;;;;3.6;2;;;;;;;;;;;;;
2023/07/25 01:17:15;;;;;;;2.5;1.9;;;;;;;;;;;;;
2023/07/25 01:19:40;;;;;;;2.3;2;;;;;;;;;;;;;
2023/07/25 01:22:05;;;;;;;3.1;2.1;;;;;;;;;;;;;
2023/07/25 01:24:36;;;;;;;2.8;1.9;;;;;;;;;;;;;
2023/07/25 01:27:04;;;;;;;3.2;2.1;;;;;;;;;;;;;
2023/07/25 01:29:58;;;;;;;2.1;1.9;;;;;;;;;;;;;
2023/07/25 01:32:23;;;;;;;4.1;1.8;;;;;;;;;;;;;
2023/07/25 01:34:48;;;;;;;2.4;2.1;;;;;;;;;;;;;
2023/07/25 01:37:13;;;;;;;3.1;2;;;;;;;;;;;;;
2023/07/25 01:39:48;;;;;;;3.6;1.9;;;;;;;;;;;;;
2023/07/25 01:42:33;;;;;;;2.7;1.8;;;;;;;;;;;;;
2023/07/25 01:44:58;;;;;;;1.9;1.7;;;;;;;;;;;;;
2023/07/25 01:47:35;;;;;;;2.4;2;;;;;;;;;;;;;
2023/07/25 01:50:03;;;;;;;2.2;1.6;;;;;;;;;;;;;
2023/07/25 01:52:32;;;;;;;2.7;1.9;;;;;;;;;;;;;
2023/07/25 01:55:13;;;;;;;2.3;1.7;;;;;;;;;;;;;
2023/07/25 01:57:38;;;;;;;2.5;2;;;;;;;;;;;;;
2023/07/25 02:00:18;;;;;;;2.5;1.8;;;;;;;;;;;;;
2023/07/25 02:02:43;;;;;;;5;2.1;;;;;;;;;;;;;
2023/07/25 02:05:13;;;;;;;3.2;2;;;;;;;;;;;;;
2023/07/25 02:07:44;;;;;;;3.8;2;;;;;;;;;;;;;
2023/07/25 02:10:27;;;;;;;1.9;1.6;;;;;;;;;;;;;
2023/07/25 02:12:56;;;;;;;4;1.9;;;;;;;;;;;;;
2023/07/25 02:15:32;;;;;;;3.2;2.2;;;;;;;;;;;;;
2023/07/25 02:18:26;;;;;;;2.5;2.1;;;;;;;;;;;;;
2023/07/25 02:20:52;;;;;;;3;1.9;;;;;;;;;;;;;
2023/07/25 02:23:31;;;;;;;2.7;2;;;;;;;;;;;;;
2023/07/25 02:25:56;;;;;;;3.2;2;;;;;;;;;;;;;
2023/07/25 02:28:21;;;;;;;3.9;2;;;;;;;;;;;;;
2023/07/25 02:31:00;;;;;;;3.2;1.9;;;;;;;;;;;;;
2023/07/25 02:33:25;;;;;;;2.1;1.8;;;;;;;;;;;;;
2023/07/25 02:35:51;;;;;;;4.4;2;;;;;;;;;;;;;
2023/07/25 02:38:49;;;;;;;3;2.1;;;;;;;;;;;;;
2023/07/25 02:41:46;;;;;;;3.8;2.1;;;;;;;;;;;;;
2023/07/25 02:44:11;;;;;;;3.9;1.9;;;;;;;;;;;;;
2023/07/25 02:46:52;;;;;;;4.4;1.9;;;;;;;;;;;;;
2023/07/25 02:49:49;;;;;;;5;1.6;;;;;;;;;;;;;
2023/07/25 02:52:26;;;;;;;4.1;2;;;;;;;;;;;;;
2023/07/25 02:55:01;;;;;;;4.1;1.9;;;;;;;;;;;;;
2023/07/25 02:57:39;;;;;;;2.1;1.8;;;;;;;;;;;;;
2023/07/25 03:00:24;;;;;;;3.2;2.1;;;;;;;;;;;;;
2023/07/25 03:02:50;;;;;;;3.2;1.9;;;;;;;;;;;;;
2023/07/25 03:05:20;;;;;;;3.4;2.1;;;;;;;;;;;;;
2023/07/25 03:07:49;;;;;;;5;1.8;;;;;;;;;;;;;
2023/07/25 03:10:30;;;;;;;3.6;2.2;;;;;;;;;;;;;
2023/07/25 03:12:55;;;;;;;2.8;1.9;;;;;;;;;;;;;
2023/07/25 03:15:20;;;;;;;2.3;1.6;;;;;;;;;;;;;
2023/07/25 03:18:02;;;;;;;2.4;1.8;;;;;;;;;;;;;
2023/07/25 03:20:45;;;;;;;2.4;1.8;;;;;;;;;;;;;
2023/07/25 03:23:20;;;;;;;2.9;1.9;;;;;;;;;;;;;
2023/07/25 03:25:52;;;;;;;2.7;2;;;;;;;;;;;;;
2023/07/25 03:28:17;;;;;;;2.1;1.7;;;;;;;;;;;;;
2023/07/25 03:30:51;;;;;;;3.8;1.9;;;;;;;;;;;;;
2023/07/25 03:33:24;;;;;;;3.2;1.9;;;;;;;;;;;;;
2023/07/25 03:35:52;;;;;;;3.5;2.1;;;;;;;;;;;;;
2023/07/25 03:38:18;;;;;;;3.5;1.7;;;;;;;;;;;;;
2023/07/25 03:41:00;;;;;;;4.5;2;;;;;;;;;;;;;
2023/07/25 03:43:30;;;;;;;2.4;1.7;;;;;;;;;;;;;
2023/07/25 03:46:00;;;;;;;2.2;1.8;;;;;;;;;;;;;
2023/07/25 03:48:25;;;;;;;2.1;1.9;;;;;;;;;;;;;
2023/07/25 03:50:57;;;;;;;2.8;1.8;;;;;;;;;;;;;
2023/07/25 03:53:22;;;;;;;4.3;2.2;;;;;;;;;;;;;
2023/07/25 03:55:58;;;;;;;3.1;1.9;;;;;;;;;;;;;
2023/07/25 03:58:33;;;;;;;3.6;2.1;;;;;;;;;;;;;
2023/07/25 04:02:38;;;;;;;2.1;1.9;;;;;;;16.64;100;928.8223;;;;
2023/07/25 04:05:20;;;;;;;3.2;1.9;;;;;;;16.67;100;928.8378;;;;
2023/07/25 04:08:04;;;;;;;1.9;1.6;;;;;;;16.72;100;928.9714;;;;
2023/07/25 04:10:36;;;;;;;2.2;1.8;;;;;;;16.68;100;929.0231;;;;
2023/07/25 04:13:11;;;;;;;1.9;1.6;;;;;;;16.66;100;929.0621;;;;
2023/07/25 04:15:48;;;;;;;2.1;1.8;;;;;;;16.64;100;929.0385;;;;
2023/07/25 04:18:23;;;;;;;2.5;1.6;;;;;;;16.25;100;928.9644;;;;
2023/07/25 04:20:50;;;;;;;2.2;1.7;;;;;;;16.27;100;928.8764;;;;
2023/07/25 04:23:16;;;;;;;3.7;1.8;;;;;;;16.43;100;928.7942;;;;
2023/07/25 04:25:41;;;;;;;3.6;2.1;;;;;;;16.52;100;928.8495;;;;
2023/07/25 04:28:28;;;;;;;2.9;1.9;;;;;;;16.53;100;928.8808;;;;
2023/07/25 04:30:55;;;;;;;3.4;1.8;;;;;;;16.63;100;928.9188;;;;
2023/07/25 04:33:28;;;;;;;3.6;1.9;;;;;;;16.76;100;928.9277;;;;
2023/07/25 04:36:31;;;;;;;3.1;2;;;;;;;16.8;100;928.8853;;;;
2023/07/25 04:39:06;;;;;;;3.6;2.1;;;;;;;16.72;100;928.8161;;;;
2023/07/25 04:41:48;;;;;;;2.9;1.8;;;;;;;16.54;100;928.8328;;;;
2023/07/25 04:44:37;;;;;;;3.2;2.4;;;;;;;16.6;100;928.7823;;;;
2023/07/25 04:47:04;;;;;;;3;1.7;;;;;;;16.61;100;928.7941;;;;
2023/07/25 04:49:34;;;;;;;3.5;2;;;;;;;16.57;100;928.7461;;;;
2023/07/25 04:52:27;;;;;;;3.9;2;;;;;;;16.55;100;928.6928;;;;
2023/07/25 04:54:58;;;;;;;2.2;1.8;;;;;;;16.52;100;928.4776;;;;
2023/07/25 04:57:43;;;;;;;2.6;1.9;;;;;;;16.45;100;928.4355;;;;
2023/07/25 05:00:36;;;;;;;2.3;1.9;;;;;;;16.53;100;928.3622;;;;
2023/07/25 05:03:06;;;;;;;2.3;2;;;;;;;16.59;100;928.3251;;;;
2023/07/25 05:05:42;;;;;;;2.2;1.7;;;;;;;16.54;100;928.2575;;;;
2023/07/25 05:08:12;;;;;;;3.3;1.8;;;;;;;16.6;100;928.2114;;;;
2023/07/25 05:11:13;;;;;;;2.8;1.9;;;;;;;16.64;100;927.9285;;;;
2023/07/25 05:13:43;;;;;;;2.4;1.9;;;;;;;16.64;100;927.5918;;;;
2023/07/25 05:16:33;;;;;;;3.5;1.9;;;;;;;16.47;100;927.3113;;;;
2023/07/25 05:19:00;;;;;;;3.5;2;;;;;;;16.38;100;927.2794;;;;
2023/07/25 05:21:52;;;;;;;2;1.8;;;;;;;16.34;100;927.4636;;;;
2023/07/25 05:24:41;;;;;;;2.8;2;;;;;;;16.36;100;927.7377;;;;
2023/07/25 05:27:37;;;;;;;4.1;2;;;;;;;16.5;100;927.8884;;;;
2023/07/25 05:30:07;;;;;;;3.9;1.9;;;;;;;16.52;100;927.8499;;;;
2023/07/25 05:32:42;;;;;;;2.2;1.6;;;;;;;16.56;100;927.9546;;;;
2023/07/25 05:35:14;;;;;;;2.8;1.8;;;;;;;16.51;100;927.9611;;;;
2023/07/25 05:38:11;;;;;;;2.8;1.9;;;;;;;16.58;100;927.9518;;;;
2023/07/25 05:40:58;;;;;;;3;2.1;;;;;;;16.69;100;928.0319;;;;
2023/07/25 05:43:26;;;;;;;3.3;1.9;;;;;;;16.71;100;927.9764;;;;
2023/07/25 05:46:09;;;;;;;2.9;2;;;;;;;16.73;100;927.9808;;;;
2023/07/25 05:49:16;;;;;;;3.3;2.1;;;;;;;16.6;100;927.7519;;;;
2023/07/25 05:51:44;;;;;;;3.9;1.8;;;;;;;16.43;100;927.6362;;;;
2023/07/25 05:54:21;;;;;;;2.9;2.2;;;;;;;16.21;100;927.6928;;;;
2023/07/25 05:57:21;;;;;;;2.1;1.9;;;;;;;16.19;100;927.6206;;;;
2023/07/25 05:59:56;;;;;;;2.7;1.9;;;;;;;16.28;100;927.5673;;;;
2023/07/25 06:02:54;;;;;;;3.5;1.9;;;;;;;16.1;100;927.501;;;;
2023/07/25 06:05:19;;;;;;;2.6;2;;;;;;;16.08;100;927.5796;;;;
2023/07/25 06:08:12;;;;;;;3.6;2.3;;;;;;;15.97;100;927.6041;;;;
2023/07/25 06:11:11;;;;;;;3.2;1.9;;;;;;;16.21;100;927.5836;;;;
2023/07/25 06:13:57;;;;;;;3.1;2;;;;;;;16.42;100;927.6905;;;;
2023/07/25 06:17:01;;;;;;;3.1;1.9;;;;;;;16.58;100;927.6738;;;;
2023/07/25 06:19:50;;;;;;;2.8;2;;;;;;;16.51;100;927.6404;;;;
2023/07/25 06:22:16;;;;;;;3.1;1.6;;;;;;;16.52;100;927.7195;;;;
2023/07/25 06:24:40;;;;;;;2.5;1.8;;;;;;;16.4;100;927.702;;;;
2023/07/25 06:27:40;;;;;;;2;1.8;;;;;;;16.55;100;927.6794;;;;
2023/07/25 06:30:09;;;;;;;3;2;;;;;;;16.65;100;927.6131;;;;
2023/07/25 06:32:47;;;;;;;2.9;2;;;;;;;16.67;100;927.7278;;;;
2023/07/25 06:35:26;;;;;;;3.5;1.9;;;;;;;16.65;100;927.712;;;;
2023/07/25 06:38:11;;;;;;;2.5;1.9;;;;;;;16.75;100;927.6384;;;;
2023/07/25 06:40:37;;;;;;;2.5;1.7;;;;;;;16.95;100;927.687;;;;
2023/07/25 06:43:09;;;;;;;1.8;1.5;;;;;;;17.07;99.7334;927.7125;;;;
2023/07/25 06:45:58;;;;;;;2.4;1.7;;;;;;;17.36;99.05664;927.6622;;;;
2023/07/25 06:48:23;;;;;;;2.2;1.5;;;;;;;17.32;100;927.6859;;;;
2023/07/25 06:51:07;;;;;;;1.9;1.5;;;;;;;17.6;98.58984;927.6622;;;;
2023/07/25 06:53:32;;;;;;;1.8;1.5;;;;;;;17.82;96.2002;927.7441;;;;
2023/07/25 06:56:00;;;;;;;2.8;1.9;;;;;;;17.93;96.8418;927.8214;;;;
2023/07/25 06:58:58;;;;;;;2.2;1.5;;;;;;;18.13;95.80273;927.9113;;;;
2023/07/25 07:01:46;;;;;;;1.5;1.4;;;;;;;18.15;93.07617;927.9977;;;;
2023/07/25 07:04:28;;;;;;;2.3;1.5;;;;;;;18.15;93.76172;928.0403;;;;
2023/07/25 07:06:53;;;;;;;1.4;1.2;;;;;;;18.22;93.73047;928.0486;;;;
2023/07/25 07:09:36;;;;;;;1.9;1.7;;;;;;;18.13;92.96777;928.0684;;;;
2023/07/25 07:12:13;;;;;;;2;1.4;;;;;;;18.1;95.09961;928.0654;;;;
2023/07/25 07:14:50;;;;;;;2.6;1.7;;;;;;;17.92;95.11914;928.128;;;;
2023/07/25 07:17:41;;;;;;;2;1.4;;;;;;;17.75;97.78613;928.2245;;;;
2023/07/25 07:20:18;;;;;;;1.8;1.5;;;;;;;17.69;98.90039;928.2668;;;;
2023/07/25 07:23:12;;;;;;;2.4;1.4;;;;;;;17.72;95.81836;928.3833;;;;
2023/07/25 07:26:04;;;;;;;1.9;1.6;;;;;;;17.76;98.07813;928.4087;;;;
2023/07/25 07:28:35;;;;;;;1.9;1.7;;;;;;;17.61;99.40234;928.5089;;;;
2023/07/25 07:31:23;;;;;;;2.6;1.8;;;;;;;17.6;100;928.6114;;;;
2023/07/25 07:33:44;;;;;;;2.5;1.6;;;;;;;17.57;99.49805;928.6777;;;;
2023/07/25 07:36:21;;;;;;;2.4;1.5;;;;;;;17.5;98.88086;928.7483;;;;
2023/07/25 07:39:01;;;;;;;3.7;1.9;;;;;;;17.37;98.9082;928.5938;;;;
2023/07/25 07:42:04;;;;;;;3.5;2.2;;;;;;;17.47;99.78906;928.6367;;;;
2023/07/25 07:45:03;;;;;;;2.6;1.9;;;;;;;17.51;99.90332;928.6248;;;;
2023/07/25 07:47:53;;;;;;;2;1.5;;;;;;;17.43;97.94824;928.6362;;;;
2023/07/25 07:50:34;;;;;;;2.3;2;;;;;;;17.56;99.20605;928.6057;;;;
2023/07/25 07:53:31;;;;;;;3.4;1.8;;;;;;;17.41;99.98535;928.7589;;;;
2023/07/25 07:56:20;;;;;;;3.1;1.7;;;;;;;17.43;99.99902;928.8699;;;;
2023/07/25 07:59:20;;;;;;;3;2.1;;;;;;;17.35;100;928.9717;;;;
2023/07/25 08:01:49;;;;;;;2.4;1.8;;;;;;;17.18;100;929.0106;;;;
2023/07/25 08:04:14;;;;;;;3.7;1.9;;;;;;;17.32;100;928.9897;;;;
2023/07/25 08:06:42;;;;;;;3.3;2.1;;;;;;;17.43;100;929.0034;;;;
2023/07/25 08:09:08;;;;;;;2.1;1.6;;;;;;;17.16;93.67969;929.0311;;;;
2023/07/25 08:11:39;;;;;;;1.5;1.3;;;;;;;17.17;89.06738;929.0438;;;;
2023/07/25 08:14:08;;;;;;;1.9;1.5;;;;;;;17.26;88.65723;929.187;;;;
2023/07/25 08:16:33;;;;;;;1.7;1.4;;;;;;;17.44;91.05762;929.2123;;;;
2023/07/25 08:19:04;;;;;;;2.3;1.4;;;;;;;17.48;93.03906;929.2472;;;;
2023/07/25 08:21:32;;;;;;;2;1.6;;;;;;;17.52;96.12305;929.2482;;;;
2023/07/25 08:23:57;;;;;;;2.8;1.8;;;;;;;17.54;96.89355;929.2438;;;;
2023/07/25 08:26:27;;;;;;;1.8;1.6;;;;;;;17.55;94.81836;929.2062;;;;
2023/07/25 08:28:52;;;;;;;5;1.8;;;;;;;17.55;93.78516;929.2506;;;;
2023/07/25 08:31:19;;;;;;;2.3;1.4;;;;;;;17.61;94.62305;929.1891;;;;
2023/07/25 08:33:44;;;;;;;2.4;1.6;;;;;;;17.62;93.96191;929.1607;;;;
2023/07/25 08:36:14;;;;;;;2;1.7;;;;;;;17.57;94.16113;929.1317;;;;
2023/07/25 08:38:43;;;;;;;3.1;1.8;;;;;;;17.36;94.3252;929.1381;;;;
2023/07/25 08:41:08;;;;;;;2.3;1.6;;;;;;;17.26;94.73242;929.1396;;;;
2023/07/25 08:43:34;;;;;;;2.8;1.6;;;;;;;16.9;97.15723;929.1129;;;;
2023/07/25 08:46:00;;;;;;;1.7;1.5;;;;;;;16.65;97.90039;929.089;;;;
2023/07/25 08:48:26;;;;;;;2.8;1.7;;;;;;;16.48;98.12988;929.1617;;;;
2023/07/25 08:50:52;;;;;;;3;1.8;;;;;;;16.5;99.95117;929.1956;;;;
2023/07/25 08:53:17;;;;;;;3;1.7;;;;;;;16.59;99.34668;929.116;;;;
2023/07/25 08:55:46;;;;;;;1.9;1.7;;;;;;;16.6;98.51563;929.1158;;;;
2023/07/25 08:58:11;;;;;;;2.8;1.8;;;;;;;16.58;98.33594;929.0761;;;;
2023/07/25 09:00:39;;;;;;;1.8;1.3;;;;;;;16.71;99.04004;929.1685;;;;
2023/07/25 09:03:06;;;;;;;2.3;1.7;;;;;;;16.73;99.4707;929.316;;;;
2023/07/25 09:05:32;;;;;;;2.1;1.5;;;;;;;16.89;99.61133;929.355;;;;
2023/07/25 09:07:59;;;;;;;2.9;1.6;;;;;;;16.84;97.27246;929.4177;;;;
2023/07/25 09:10:24;;;;;;;2.8;1.5;;;;;;;16.79;96.51953;929.4068;;;;
2023/07/25 09:12:50;;;;;;;2.4;1.7;;;;;;;16.84;95.73047;929.3325;;;;
2023/07/25 09:15:15;;;;;;;2.5;1.6;;;;;;;16.7;96.84668;929.4333;;;;
2023/07/25 09:17:43;;;;;;;1.8;1.4;;;;;;;16.53;99.03125;929.4312;;;;
2023/07/25 09:20:08;;;;;;;2.8;1.6;;;;;;;16.54;99.62402;929.4309;;;;
2023/07/25 09:22:35;;;;;;;2.4;1.5;;;;;;;16.61;100;929.4339;;;;
2023/07/25 09:25:00;;;;;;;2.7;1.5;;;;;;;16.49;99.75293;929.4066;;;;
2023/07/25 09:27:25;;;;;;;2.1;1.5;;;;;;;16.51;98.36621;929.3491;;;;
2023/07/25 09:29:51;;;;;;;2.6;1.8;;;;;;;16.75;97.34375;929.3862;;;;
2023/07/25 09:32:17;;;;;;;2.4;1.6;;;;;;;17.13;96.60449;929.4015;;;;
2023/07/25 09:34:42;;;;;;;2.4;1.7;;;;;;;17.32;97.20508;929.3709;;;;
2023/07/25 09:37:07;;;;;;;3.1;1.8;;;;;;;17.5;94.9248;929.3431;;;;
2023/07/25 09:39:34;;;;;;;2.3;1.5;;;;;;;17.48;95.38281;929.3727;;;;
2023/07/25 09:42:00;;;;;;;1.7;1.2;;;;;;;17.8;93.9668;929.3099;;;;
2023/07/25 09:44:27;;;;;;;2.5;1.3;;;;;;;18.09;92.64648;929.3904;;;;
2023/07/25 09:46:52;;;;;;;1.8;1.3;;;;;;;18.04;92.72949;929.4177;;;;
2023/07/25 09:49:17;;;;;;;1.4;1.3;;;;;;;17.78;91.71094;929.3346;;;;
2023/07/25 09:51:44;;;;;;;1.3;1.2;;;;;;;17.94;91.11621;929.2806;;;;
2023/07/25 09:54:09;;;;;;;2.7;1.5;;;;;;;18.35;92.20215;929.2672;;;;
2023/07/25 09:56:34;;;;;;;1.3;1.1;;;;;;;18.49;89.82324;929.2683;;;;
2023/07/25 09:58:59;;;;;;;1.4;1.3;;;;;;;18.66;88.93945;929.245;;;;
2023/07/25 10:01:25;;;;;;;1.5;1.1;;;;;;;18.99;88.09863;929.3041;;;;
2023/07/25 10:03:52;;;;;;;2.4;1.2;;;;;;;19.15;85.66211;929.2491;;;;
2023/07/25 10:06:17;;;;;;;1.2;1.1;;;;;;;19.13;84.88867;929.28;;;;
2023/07/25 10:08:46;;;;;;;2.5;1.1;;;;;;;19.37;86.1123;929.2339;;;;
2023/07/25 10:11:11;;;;;;;1.4;1.3;;;;;;;19.45;85.98633;929.1818;;;;
2023/07/25 10:13:37;;;;;;;1.4;1.1;;;;;;;19.66;84.71094;929.1611;;;;
2023/07/25 10:16:02;;;;;;;2;1.4;;;;;;;19.39;81.2793;929.1767;;;;
2023/07/25 10:18:28;;;;;;;1.6;1.3;;;;;;;19.43;84.01367;929.1827;;;;
2023/07/25 10:21:13;;;;;;;2.1;1.3;;;;;;;19.37;84.80762;929.1378;;;;
2023/07/25 10:23:38;;;;;;;1.5;1.2;;;;;;;19.47;84.74512;929.0624;;;;
2023/07/25 10:26:08;;;;;;;2.8;1.3;;;;;;;19.73;83.46582;929.0047;;;;
2023/07/25 10:28:33;;;;;;;1.7;1.4;;;;;;;19.88;81.27734;929.037;;;;
2023/07/25 10:31:00;;;;;;;4;1.4;;;;;;;20.37;80.63086;928.9984;;;;
2023/07/25 10:33:25;;;;;;;1.3;1.1;;;;;;;20.59;78.82617;928.9779;;;;
2023/07/25 10:35:52;;;;;;;1.4;1.1;;;;;;;20.63;77.75781;928.8683;;;;
2023/07/25 10:38:17;;;;;;;1.9;1;;;;;;;20.51;75.64648;928.8326;;;;
2023/07/25 10:40:43;;;;;;;1.4;1;;;;;;;20.72;75.81055;928.8926;;;;
2023/07/25 10:43:11;;;;;;;1.3;1;;;;;;;20.99;71.96094;928.7522;;;;
2023/07/25 10:45:36;;;;;;;1.2;1.1;;;;;;;21.02;79.1123;928.7353;;;;
2023/07/25 10:48:01;;;;;;;1.1;1;;;;;;;20.68;79.57715;928.7536;;;;
2023/07/25 10:50:26;;;;;;;1;0.9;;;;;;;20.54;71.83105;928.7241;;;;
2023/07/25 10:52:51;;;;;;;1.8;0.9;;;;;;;20.43;75.99414;928.7877;;;;
2023/07/25 10:55:18;;;;;;;1.5;1;;;;;;;20.14;75.88477;928.7501;;;;
2023/07/25 10:57:43;;;;;;;1.5;1.1;;;;;;;19.84;83.10156;928.7728;;;;
2023/07/25 11:00:08;;;;;;;2.1;1.2;;;;;;;19.84;82.69141;928.7342;;;;
2023/07/25 11:02:33;;;;;;;2.1;1.2;;;;;;;19.62;83.04785;928.7103;;;;
2023/07/25 11:05:01;;;;;;;1;0.9;;;;;;;19.61;82.61426;928.7073;;;;
2023/07/25 11:07:29;;;;;;;1.6;1.1;;;;;;;19.56;82.30273;928.7407;;;;
2023/07/25 11:09:54;;;;;;;1.3;1.2;;;;;;;19.58;83.84277;928.7297;;;;
2023/07/25 11:12:19;;;;;;;1.8;1.2;;;;;;;19.66;84.60449;928.6533;;;;
2023/07/25 11:14:44;;;;;;;1.2;1.1;;;;;;;19.84;85.28223;928.671;;;;
2023/07/25 11:17:13;;;;;;;2.8;1.4;;;;;;;20.03;82.04004;928.6124;;;;
2023/07/25 11:19:38;;;;;;;2.2;1.2;;;;;;;20.12;84.9043;928.6133;;;;
2023/07/25 11:22:04;;;;;;;3.3;1.3;;;;;;;20.38;84.26563;928.5629;;;;
2023/07/25 11:24:30;;;;;;;1.3;1.1;;;;;;;20.58;82.76172;928.5328;;;;
2023/07/25 11:26:55;;;;;;;1.8;1.1;;;;;;;20.7;81.18262;928.5269;;;;
2023/07/25 11:29:20;;;;;;;2.6;1;;;;;;;20.71;81.93066;928.5219;;;;
2023/07/25 11:31:45;;;;;;;1.4;1.1;;;;;;;20.85;82.08594;928.4911;;;;
2023/07/25 11:34:10;;;;;;;1.5;1.1;;;;;;;21.19;78.39551;928.4626;;;;
2023/07/25 11:36:35;;;;;;;1.8;1;;;;;;;20.96;76.30664;928.3552;;;;
2023/07/25 11:39:01;;;;;;;2.3;1;;;;;;;21.21;76.25781;928.4131;;;;
2023/07/25 11:41:26;;;;;;;1.1;1;;;;;;;21.31;76.82324;928.4033;;;;
2023/07/25 11:43:51;;;;;;;2.5;1.1;;;;;;;21.25;76.59375;928.3745;;;;
2023/07/25 11:46:17;;;;;;;1.3;1.2;;;;;;;21.18;76.01758;928.3903;;;;
2023/07/25 11:48:41;;;;;;;1.4;1;;;;;;;21.44;75.92188;928.4267;;;;
2023/07/25 11:51:08;;;;;;;1.3;1.1;;;;;;;21.62;73.50391;928.3364;;;;
2023/07/25 11:53:33;;;;;;;2.7;1.1;;;;;;;21.51;73.18359;928.3723;;;;
2023/07/25 11:56:00;;;;;;;1.1;1;;;;;;;21.79;76.5332;928.3055;;;;
2023/07/25 11:58:25;;;;;;;1.7;1.1;;;;;;;21.93;70.31055;928.2078;;;;
2023/07/25 12:00:54;;;;;;;1;0.9;;;;;;;22.03;68.47461;928.2033;;;;
2023/07/25 12:03:17;;;;;;;1.8;1;;;;;;;22.15;66.38184;928.113;;;;
2023/07/25 12:05:42;;;;;;;1.5;1.1;;;;;;;22.75;67.28223;928.0637;;;;
2023/07/25 12:08:07;;;;;;;1;0.9;;;;;;;23.24;63.44434;927.985;;;;
2023/07/25 12:10:32;;;;;;;0.8;0.8;;;;;;;23.41;65.125;928.0298;;;;
2023/07/25 12:13:00;;;;;;;1.5;1;;;;;;;22.96;61.2666;927.9188;;;;
2023/07/25 12:15:24;;;;;;;0.8;0.8;;;;;;;22.84;61.22461;927.9062;;;;
2023/07/25 12:17:52;;;;;;;1.2;0.8;;;;;;;22.83;59.48633;927.8561;;;;
2023/07/25 12:20:17;;;;;;;1;1;;;;;;;22.61;59.82129;927.8619;;;;
2023/07/25 12:22:42;;;;;;;2.1;1.3;;;;;;;22.48;58.80566;927.8683;;;;
2023/07/25 12:25:07;;;;;;;1;0.8;;;;;;;22.54;59.20117;927.8951;;;;
2023/07/25 12:27:32;;;;;;;0.8;0.8;;;;;;;22.63;56.52539;927.7431;;;;
2023/07/25 12:29:57;;;;;;;0.8;0.8;;;;;;;22.69;61.09863;927.8088;;;;
2023/07/25 12:32:24;;;;;;;1;0.9;;;;;;;22.4;60.98828;927.8593;;;;
2023/07/25 12:34:49;;;;;;;1.4;0.9;;;;;;;22.03;65.94238;927.865;;;;
2023/07/25 12:37:16;;;;;;;1.3;1;;;;;;;22.41;61.97559;927.8564;;;;
2023/07/25 12:39:41;;;;;;;1;0.9;;;;;;;22.83;63.80664;927.8158;;;;
2023/07/25 12:42:07;;;;;;;1.1;1;;;;;;;23.09;65.57129;927.7872;;;;
2023/07/25 12:44:33;;;;;;;1.2;1.1;;;;;;;23.58;57.68066;927.8005;;;;
2023/07/25 12:47:01;;;;;;;1.3;0.8;;;;;;;23.68;59.12891;927.8284;;;;
2023/07/25 12:49:26;;;;;;;1.2;0.9;;;;;;;23.57;56.86816;927.755;;;;
2023/07/25 12:51:52;;;;;;;0.8;0.7;;;;;;;23.46;57.61719;927.8108;;;;
2023/07/25 12:54:16;;;;;;;1.5;1;;;;;;;24.09;56.2041;927.7541;;;;
2023/07/25 12:56:42;;;;;;;1.6;0.8;;;;;;;23.87;55.1748;927.6766;;;;
2023/07/25 12:59:08;;;;;;;1.8;1.1;;;;;;;23.94;58.48145;927.7795;;;;
2023/07/25 13:01:35;;;;;;;2.3;1;;;;;;;24.3;56.37109;927.726;;;;
2023/07/25 13:04:00;;;;;;;1;0.9;;;;;;;23.6;54.56641;927.7093;;;;
2023/07/25 13:06:26;;;;;;;1.9;0.8;;;;;;;24.06;57.38965;927.7253;;;;
2023/07/25 13:08:51;;;;;;;1.3;0.9;;;;;;;24.25;52.45508;927.6584;;;;
2023/07/25 13:11:16;;;;;;;0.7;0.7;;;;;;;24.23;53.96094;927.6336;;;;
2023/07/25 13:13:41;;;;;;;1.4;1;;;;;;;23.77;53.05859;927.6102;;;;
2023/07/25 13:16:10;;;;;;;1.4;1.1;;;;;;;23.97;56.0127;927.6251;;;;
2023/07/25 13:18:35;;;;;;;1;0.9;;;;;;;23.88;53.12891;927.585;;;;
2023/07/25 13:21:01;;;;;;;1.1;0.9;;;;;;;23.85;55.62109;927.5223;;;;
2023/07/25 13:23:26;;;;;;;1.4;0.9;;;;;;;24.18;53.95508;927.545;;;;
2023/07/25 13:25:52;;;;;;;1;0.9;;;;;;;24.64;54.22266;927.5572;;;;
2023/07/25 13:28:17;;;;;;;1.4;1;;;;;;;24.8;58.55859;927.4986;;;;
2023/07/25 13:30:43;;;;;;;0.7;0.7;;;;;;;24.82;54.86914;927.5403;;;;
2023/07/25 13:33:08;;;;;;;1.8;1;;;;;;;24.56;51.94922;927.5717;;;;
2023/07/25 13:35:34;;;;;;;2;0.9;;;;;;;23.01;56.2666;927.4835;;;;
2023/07/25 13:37:59;;;;;;;2;1.1;;;;;;;22.61;57.80078;927.5369;;;;
2023/07/25 13:40:25;;;;;;;1.2;1;;;;;;;22.76;57.08203;927.473;;;;
2023/07/25 13:42:50;;;;;;;1;0.8;;;;;;;22.98;59.42383;927.4177;;;;
2023/07/25 13:45:17;;;;;;;1.2;1;;;;;;;23.17;63.33789;927.4299;;;;
2023/07/25 13:47:42;;;;;;;1.7;0.9;;;;;;;23.51;56.91895;927.5079;;;;
2023/07/25 13:50:08;;;;;;;0.7;0.7;;;;;;;23.47;54.84473;927.4533;;;;
2023/07/25 13:52:33;;;;;;;2.3;1;;;;;;;23.44;61.94238;927.5226;;;;
2023/07/25 13:55:00;;;;;;;1.1;1;;;;;;;23.21;62.58203;927.4364;;;;
2023/07/25 13:57:25;;;;;;;1.3;1.2;;;;;;;22.98;61.46875;927.4054;;;;
2023/07/25 13:59:52;;;;;;;1;0.9;;;;;;;22.44;58.70605;927.3531;;;;
2023/07/25 14:02:17;;;;;;;1;0.9;;;;;;;22.52;60.88867;927.3923;;;;
2023/07/25 14:04:43;;;;;;;1.7;0.8;;;;;;;22.55;66.30176;927.4354;;;;
2023/07/25 14:07:08;;;;;;;2.4;1;;;;;;;22.41;65.03809;927.5252;;;;
2023/07/25 14:09:37;;;;;;;1.1;0.9;;;;;;;22.06;66.1709;927.6294;;;;
2023/07/25 14:12:02;;;;;;;1;0.9;;;;;;;22.09;64.4502;927.6744;;;;
2023/07/25 14:14:28;;;;;;;2.2;1.2;;;;;;;21.73;66.4375;927.762;;;;
2023/07/25 14:16:53;;;;;;;1.7;1.2;;;;;;;21.42;66.02832;927.7802;;;;
2023/07/25 14:19:19;;;;;;;3.3;1.3;;;;;;;21.18;73.6543;928.1194;;;;
2023/07/25 14:21:44;;;;;;;0.7;0.6;;;;;;;20.62;60.125;928.1542;;;;
2023/07/25 14:24:11;;;;;;;0.5;0.5;;;;;;;20.09;66.09766;928.1572;;;;
2023/07/25 14:26:36;;;;;;;0.6;0.6;;;;;;;20.23;68.82617;928.1533;;;;
2023/07/25 14:29:03;;;;;;;0.7;0.6;;;;;;;19.65;67.25684;928.2917;;;;
2023/07/25 14:31:27;;;;;;;1.6;0.7;;;;;;;19.16;69.06836;928.2224;;;;
2023/07/25 14:33:52;;;;;;;1.3;0.9;;;;;;;18.8;66.80078;928.2755;;;;
2023/07/25 14:36:17;;;;;;;1.1;1;;;;;;;18.71;68.75293;928.3787;;;;
2023/07/25 14:38:44;;;;;;;1.6;0.9;;;;;;;18.7;74.48633;928.3397;;;;
2023/07/25 14:41:09;;;;;;;1;0.9;;;;;;;18.66;73.72461;928.3775;;;;
2023/07/25 14:43:35;;;;;;;1;0.8;;;;;;;18.81;72.12109;928.3136;;;;
2023/07/25 14:46:00;;;;;;;2.5;0.8;;;;;;;19.09;74.4375;928.3204;;;;
2023/07/25 14:48:27;;;;;;;0.8;0.8;;;;;;;19.2;74.72363;928.2659;;;;
2023/07/25 14:50:52;;;;;;;0.6;0.6;;;;;;;18.92;71.97559;928.3113;;;;
2023/07/25 14:53:19;;;;;;;0.8;0.8;;;;;;;19.27;75.24805;928.1917;;;;
2023/07/25 14:55:43;;;;;;;1.4;0.8;;;;;;;18.92;73.0918;928.2009;;;;
2023/07/25 14:58:09;;;;;;;1;0.8;;;;;;;18.94;72.60742;928.1856;;;;
2023/07/25 15:00:34;;;;;;;1;0.9;;;;;;;19.01;71.85059;928.1232;;;;
2023/07/25 15:03:02;;;;;;;1.7;0.8;;;;;;;19.18;73.53125;928.1547;;;;
2023/07/25 15:05:27;;;;;;;0.9;0.8;;;;;;;18.99;69.57813;928.0293;;;;
2023/07/25 15:07:54;;;;;;;1.1;1;;;;;;;18.9;69.22461;928.1089;;;;
2023/07/25 15:10:18;;;;;;;1.2;0.9;;;;;;;19.2;70.26172;928.1103;;;;
2023/07/25 15:12:43;;;;;;;1.2;0.9;;;;;;;19.34;69.17773;928.084;;;;
2023/07/25 15:15:09;;;;;;;1;0.8;;;;;;;19.25;65.79785;928.1028;;;;
2023/07/25 15:17:36;;;;;;;1;0.9;;;;;;;19.13;68.22656;928.0966;;;;
2023/07/25 15:20:02;;;;;;;0.9;0.9;;;;;;;19.11;67.52539;928.1047;;;;
2023/07/25 15:22:28;;;;;;;1.7;0.9;;;;;;;19.22;65.95605;928.1225;;;;
2023/07/25 15:24:54;;;;;;;1.3;0.9;;;;;;;19.33;62.87402;928.1078;;;;
2023/07/25 15:27:19;;;;;;;1.2;0.7;;;;;;;19.3;62.49707;928.0378;;;;
2023/07/25 15:29:44;;;;;;;0.7;0.7;;;;;;;19.34;62.42188;928.0209;;;;
2023/07/25 15:32:10;;;;;;;1.5;0.9;;;;;;;19.54;62.23926;928.0595;;;;
2023/07/25 15:34:35;;;;;;;1;0.9;;;;;;;19.32;59.68066;928.0494;;;;
2023/07/25 15:37:00;;;;;;;0.7;0.6;;;;;;;19.4;59.62109;928.0369;;;;
2023/07/25 15:39:25;;;;;;;0.7;0.7;;;;;;;19.45;61.25879;928.0363;;;;
2023/07/25 15:41:50;;;;;;;1.2;0.8;;;;;;;19.52;60.83887;928.0492;;;;
2023/07/25 15:44:16;;;;;;;1.8;1.1;;;;;;;19.46;62.57813;928.0033;;;;
2023/07/25 15:46:41;;;;;;;0.9;0.7;;;;;;;19.29;61.72656;928.0664;;;;
2023/07/25 15:49:08;;;;;;;1.5;0.8;;;;;;;19.33;63.50293;928.0672;;;;
2023/07/25 15:51:32;;;;;;;1.3;0.7;;;;;;;19.65;63.50293;928.0413;;;;
2023/07/25 15:53:59;;;;;;;0.7;0.7;;;;;;;19.96;60.44336;927.9871;;;;
2023/07/25 15:56:23;;;;;;;0.8;0.8;;;;;;;20.2;60.46387;928.0037;;;;
2023/07/25 15:58:50;;;;;;;2.6;1;;;;;;;20.51;62.61035;927.9673;;;;
2023/07/25 16:01:15;;;;;;;1.7;0.7;;;;;;;20.87;61.70117;927.988;;;;
2023/07/25 16:03:41;;;;;;;0.8;0.7;;;;;;;20.89;65.6582;928.015;;;;
2023/07/25 16:06:06;;;;;;;2.1;0.7;;;;;;;20.93;65.87207;928.0289;;;;
2023/07/25 16:08:32;;;;;;;0.9;0.8;;;;;;;20.96;65.08105;928.0022;;;;
2023/07/25 16:10:57;;;;;;;1.3;0.9;;;;;;;20.71;65.03418;928.0388;;;;
2023/07/25 16:13:23;;;;;;;0.9;0.9;;;;;;;20.46;66.42285;928.1733;;;;
2023/07/25 16:15:49;;;;;;;1;1;;;;;;;20.37;69.17578;928.2827;;;;